createdAt,value
2018-02-21T00:01:07.518Z,60.80
2018-02-21T00:03:35.054Z,63.97
2018-02-21T00:06:03.379Z,60.53
2018-02-21T00:08:30.926Z,61.92
2018-02-21T00:10:58.459Z,65.17
2018-02-21T00:13:26.787Z,54.83
2018-02-21T00:15:54.326Z,61.20
2018-02-21T00:18:21.882Z,60.77
2018-02-21T00:20:49.419Z,63.13
2018-02-21T00:23:16.995Z,67.20
2018-02-21T00:25:44.531Z,62.33
2018-02-21T00:28:12.873Z,64.65
2018-02-21T00:30:40.414Z,67.83
2018-02-21T00:33:07.978Z,59.55
2018-02-21T00:35:35.517Z,61.27
2018-02-21T00:38:03.077Z,53.50
2018-02-21T00:40:30.614Z,70.12
2018-02-21T00:42:58.938Z,67.03
2018-02-21T00:45:26.483Z,62.73
2018-02-21T00:47:54.034Z,59.57
2018-02-21T00:50:21.562Z,67.50
2018-02-21T00:52:49.873Z,57.47
2018-02-21T00:55:17.435Z,53.27
2018-02-21T00:57:44.979Z,63.97
2018-02-21T01:00:12.542Z,63.60
2018-02-21T01:02:40.086Z,62.90
2018-02-21T01:05:08.408Z,64.43
2018-02-21T01:07:35.937Z,52.53
2018-02-21T01:10:03.516Z,59.97
2018-02-21T01:12:31.048Z,58.57
2018-02-21T01:14:58.608Z,52.38
2018-02-21T01:17:26.905Z,58.67
2018-02-21T01:19:54.476Z,63.67
2018-02-21T01:22:22.024Z,62.35
2018-02-21T01:24:49.588Z,62.28
2018-02-21T01:27:17.127Z,61.63
2018-02-21T01:29:44.695Z,62.28
2018-02-21T01:32:12.230Z,61.88
2018-02-21T01:34:40.565Z,70.45
2018-02-21T01:37:08.872Z,59.97
2018-02-21T01:39:36.440Z,63.03
2018-02-21T01:42:04.751Z,59.30
2018-02-21T01:44:32.319Z,62.45
2018-02-21T01:46:59.870Z,57.50
2018-02-21T01:49:27.429Z,58.10
2018-02-21T01:51:54.978Z,49.25
2018-02-21T01:54:22.550Z,57.17
2018-02-21T01:56:50.116Z,48.60
2018-02-21T01:59:17.658Z,54.08
2018-02-21T02:01:45.243Z,51.88
2018-02-21T02:04:12.778Z,52.03
2018-02-21T02:06:40.344Z,54.40
2018-02-21T02:09:07.883Z,50.77
2018-02-21T02:11:36.210Z,54.70
2018-02-21T02:14:03.741Z,58.20
2018-02-21T02:16:31.303Z,56.93
2018-02-21T02:18:58.836Z,61.40
2018-02-21T02:21:27.166Z,56.53
2018-02-21T02:23:54.700Z,57.03
2018-02-21T02:26:22.269Z,64.53
2018-02-21T02:28:49.802Z,55.93
2018-02-21T02:31:18.186Z,58.22
2018-02-21T02:33:45.730Z,70.03
2018-02-21T02:36:14.053Z,57.07
2018-02-21T02:38:47.566Z,61.13
2018-02-21T02:41:15.131Z,58.20
2018-02-21T02:43:43.442Z,57.03
2018-02-21T02:46:11.779Z,54.70
2018-02-21T02:48:39.310Z,57.37
2018-02-21T02:51:06.881Z,67.27
2018-02-21T02:53:34.415Z,59.37
2018-02-21T02:56:01.986Z,60.58
2018-02-21T02:58:29.526Z,60.73
2018-02-21T03:00:57.847Z,63.93
2018-02-21T03:03:25.387Z,67.67
2018-02-21T03:05:52.959Z,60.50
2018-02-21T03:08:20.506Z,62.50
2018-02-21T03:10:48.051Z,62.73
2018-02-21T03:13:16.346Z,66.13
2018-02-21T03:15:43.916Z,72.37
2018-02-21T03:18:11.458Z,64.00
2018-02-21T03:20:39.013Z,67.07
2018-02-21T03:23:07.314Z,57.63
2018-02-21T03:25:34.870Z,72.30
2018-02-21T03:28:02.402Z,70.57
2018-02-21T03:30:30.730Z,70.90
2018-02-21T03:32:58.279Z,68.03
2018-02-21T03:35:25.839Z,72.23
2018-02-21T03:37:53.378Z,84.57
2018-02-21T03:40:20.942Z,77.27
2018-02-21T03:42:48.485Z,67.67
2018-02-21T03:45:16.054Z,75.67
2018-02-21T03:47:43.589Z,75.20
2018-02-21T03:50:11.914Z,75.47
2018-02-21T03:52:39.461Z,77.12
2018-02-21T03:55:07.023Z,71.53
2018-02-21T03:57:34.570Z,69.05
2018-02-21T04:00:02.109Z,81.53
2018-02-21T04:02:30.434Z,72.97
2018-02-21T04:04:57.974Z,65.60
2018-02-21T04:07:25.538Z,65.13
2018-02-21T04:09:53.070Z,71.83
2018-02-21T04:12:21.402Z,67.57
2018-02-21T04:14:48.946Z,57.38
2018-02-21T04:17:16.510Z,63.17
2018-02-21T04:19:44.054Z,58.67
2018-02-21T04:22:11.606Z,54.70
2018-02-21T04:24:39.142Z,52.37
2018-02-21T04:27:07.467Z,48.90
2018-02-21T04:29:35.002Z,54.00
2018-02-21T04:32:02.563Z,65.53
2018-02-21T04:34:30.099Z,54.63
2018-02-21T04:36:58.438Z,54.97
2018-02-21T04:39:25.979Z,57.30
2018-02-21T04:41:53.553Z,55.97
2018-02-21T04:44:21.877Z,51.22
2018-02-21T04:46:50.206Z,54.08
2018-02-21T04:49:17.748Z,55.63
2018-02-21T04:51:45.328Z,50.30
2018-02-21T04:54:27.769Z,60.97
2018-02-21T04:57:00.979Z,52.23
2018-02-21T04:59:29.295Z,55.58
2018-02-21T05:01:56.878Z,53.80
2018-02-21T05:04:24.418Z,57.62
2018-02-21T05:06:51.978Z,55.08
2018-02-21T05:09:19.550Z,55.53
2018-02-21T05:11:47.106Z,70.78
2018-02-21T05:14:15.422Z,50.78
2018-02-21T05:16:43.763Z,58.20
2018-02-21T05:19:11.340Z,60.42
2018-02-21T05:21:38.902Z,54.95
2018-02-21T05:24:06.473Z,59.00
2018-02-21T05:26:34.273Z,63.28
2018-02-21T05:29:01.818Z,61.85
2018-02-21T05:31:29.393Z,65.28
2018-02-21T05:33:56.934Z,60.17
2018-02-21T05:36:25.269Z,54.40
2018-02-21T05:38:52.864Z,63.85
2018-02-21T05:41:20.521Z,76.37
2018-02-21T05:43:48.934Z,64.37
2018-02-21T05:46:16.494Z,63.63
2018-02-21T05:48:44.026Z,64.80
2018-02-21T05:51:12.358Z,60.80
2018-02-21T05:53:39.899Z,78.50
2018-02-21T05:56:07.455Z,68.30
2018-02-21T05:58:35.031Z,70.28
2018-02-21T06:01:02.575Z,77.65
2018-02-21T06:03:30.145Z,64.65
2018-02-21T06:05:57.687Z,83.70
2018-02-21T06:08:25.252Z,76.65
2018-02-21T06:10:52.793Z,69.68
2018-02-21T06:13:21.128Z,76.10
2018-02-21T06:15:48.683Z,72.68
2018-02-21T06:18:16.246Z,88.37
2018-02-21T06:20:43.788Z,84.93
2018-02-21T06:23:11.354Z,85.85
2018-02-21T06:25:38.895Z,84.45
2018-02-21T06:28:06.467Z,77.10
2018-02-21T06:30:34.012Z,87.03
2018-02-21T06:54:30.476Z,89.55
2018-02-21T06:56:58.422Z,93.22
2018-02-21T06:59:25.958Z,88.97
2018-02-21T07:01:53.549Z,80.15
2018-02-21T07:04:21.856Z,86.35
2018-02-21T07:06:49.425Z,77.90
2018-02-21T07:09:16.974Z,79.93
2018-02-21T07:11:44.538Z,87.40
2018-02-21T07:14:12.082Z,88.25
2018-02-21T07:16:39.628Z,78.03
2018-02-21T07:19:07.960Z,92.70
2018-02-21T07:21:35.498Z,82.30
2018-02-21T07:24:03.069Z,80.05
2018-02-21T07:26:30.618Z,95.95
2018-02-21T07:28:58.183Z,80.38
2018-02-21T07:31:25.727Z,88.05
2018-02-21T07:33:53.290Z,93.18
2018-02-21T07:36:20.830Z,82.30
2018-02-21T07:38:49.166Z,77.65
2018-02-21T07:41:16.714Z,84.90
2018-02-21T07:43:44.323Z,89.50
2018-02-21T07:46:12.650Z,84.72
2018-02-21T07:48:40.222Z,90.38
2018-02-21T07:51:07.815Z,98.87
2018-02-21T07:53:35.380Z,85.40
2018-02-21T07:56:03.689Z,94.47
2018-02-21T07:58:31.255Z,104.83
2018-02-21T08:00:58.841Z,97.60
2018-02-21T08:03:26.379Z,91.60
2018-02-21T08:05:53.929Z,87.60
2018-02-21T08:08:21.490Z,85.43
2018-02-21T08:10:49.030Z,89.18
2018-02-21T08:13:17.363Z,90.05
2018-02-21T08:15:44.915Z,98.73
2018-02-21T08:18:12.475Z,88.47
2018-02-21T08:20:40.022Z,82.03
2018-02-21T08:23:07.584Z,94.60
2018-02-21T08:25:35.118Z,91.40
2018-02-21T08:28:02.685Z,89.13
2018-02-21T08:30:30.224Z,80.73
2018-02-21T08:32:57.789Z,89.67
2018-02-21T08:35:25.334Z,75.22
2018-02-21T08:37:53.671Z,80.43
2018-02-21T08:40:21.216Z,91.47
2018-02-21T08:42:48.782Z,94.22
2018-02-21T08:45:16.317Z,86.85
2018-02-21T08:47:43.874Z,87.90
2018-02-21T08:50:11.413Z,80.03
2018-02-21T08:52:38.994Z,78.37
2018-02-21T08:55:06.539Z,71.30
2018-02-21T08:57:34.101Z,84.18
2018-02-21T09:00:02.409Z,89.30
2018-02-21T09:02:29.977Z,79.10
2018-02-21T09:04:57.658Z,74.03
2018-02-21T09:07:25.224Z,80.47
2018-02-21T09:09:52.782Z,89.33
2018-02-21T09:12:20.358Z,78.47
2018-02-21T09:14:47.883Z,68.50
2018-02-21T09:17:15.450Z,75.07
2018-02-21T09:19:43.004Z,71.53
2018-02-21T09:22:10.535Z,70.93
2018-02-21T09:24:38.089Z,69.12
2018-02-21T09:27:06.544Z,60.10
2018-02-21T09:29:34.886Z,78.30
2018-02-21T09:32:02.417Z,76.10
2018-02-21T09:34:29.981Z,71.47
2018-02-21T09:36:57.531Z,73.20
2018-02-21T09:39:25.107Z,66.87
2018-02-21T09:41:52.643Z,70.93
2018-02-21T09:44:20.975Z,68.43
2018-02-21T09:46:48.498Z,71.90
2018-02-21T09:49:16.050Z,66.57
2018-02-21T09:51:43.586Z,74.37
2018-02-21T09:54:11.914Z,70.37
2018-02-21T09:56:39.449Z,64.93
2018-02-21T09:59:07.003Z,61.93
2018-02-21T10:01:34.535Z,64.43
2018-02-21T10:04:02.101Z,66.20
2018-02-21T10:06:30.409Z,72.60
2018-02-21T10:08:57.962Z,64.50
2018-02-21T10:11:25.490Z,62.73
2018-02-21T10:13:53.047Z,70.37
2018-02-21T10:16:21.354Z,75.47
2018-02-21T10:18:48.915Z,63.60
2018-02-21T10:21:16.447Z,67.40
2018-02-21T10:23:43.999Z,65.37
2018-02-21T10:26:11.533Z,75.63
2018-02-21T10:28:39.082Z,58.70
2018-02-21T10:31:06.610Z,71.57
2018-02-21T10:33:34.169Z,70.73
2018-02-21T10:36:02.463Z,79.17
2018-02-21T10:38:30.018Z,73.13
2018-02-21T10:40:57.554Z,72.00
2018-02-21T10:43:25.870Z,70.17
2018-02-21T10:45:53.398Z,66.27
2018-02-21T10:48:21.723Z,60.30
2018-02-21T10:50:49.254Z,65.90
2018-02-21T10:53:16.800Z,63.10
2018-02-21T10:55:44.332Z,67.07
2018-02-21T10:58:11.891Z,69.13
2018-02-21T11:03:55.938Z,63.53
2018-02-21T11:06:23.480Z,60.70
2018-02-21T11:08:51.034Z,59.80
2018-02-21T11:11:18.567Z,62.73
2018-02-21T11:13:46.122Z,51.07
2018-02-21T11:16:14.409Z,57.53
2018-02-21T11:18:41.966Z,42.70
2018-02-21T11:21:09.527Z,50.87
2018-02-21T11:23:37.162Z,47.37
2018-02-21T11:26:04.625Z,52.10
2018-02-21T11:28:32.946Z,51.47
2018-02-21T11:31:00.475Z,47.87
2018-02-21T11:33:28.031Z,51.57
2018-02-21T11:35:56.323Z,46.83
2018-02-21T11:38:23.881Z,50.00
2018-02-21T11:40:51.418Z,51.27
2018-02-21T11:43:19.746Z,56.33
2018-02-21T11:45:47.287Z,49.90
2018-02-21T11:48:14.846Z,47.00
2018-02-21T11:50:42.379Z,45.97
2018-02-21T11:53:10.697Z,48.03
2018-02-21T11:55:38.226Z,45.97
2018-02-21T11:58:06.542Z,39.80
2018-02-21T12:00:34.070Z,44.10
2018-02-21T12:03:01.639Z,46.27
2018-02-21T12:05:29.177Z,45.70
2018-02-21T12:07:57.499Z,41.40
2018-02-21T12:10:25.023Z,42.97
2018-02-21T12:12:52.582Z,41.73
2018-02-21T12:15:20.115Z,41.23
2018-02-21T12:17:47.645Z,37.20
2018-02-21T12:20:15.206Z,40.67
2018-02-21T12:22:42.743Z,35.33
2018-02-21T12:25:10.298Z,33.37
2018-02-21T12:27:37.827Z,30.53
2018-02-21T12:30:06.162Z,33.47
2018-02-21T12:32:34.178Z,33.40
2018-02-21T12:35:02.502Z,34.20
2018-02-21T12:37:30.035Z,32.20
2018-02-21T12:39:59.386Z,34.00
2018-02-21T12:42:26.915Z,32.20
2018-02-21T12:44:54.479Z,33.40
2018-02-21T12:47:22.006Z,34.63
2018-02-21T12:49:49.575Z,34.53
2018-02-21T12:52:17.111Z,28.20
2018-02-21T12:54:45.439Z,33.60
2018-02-21T12:57:12.979Z,31.73
2018-02-21T12:59:40.541Z,33.63
2018-02-21T13:02:08.075Z,31.87
2018-02-21T13:04:35.642Z,40.50
2018-02-21T13:07:03.179Z,27.63
2018-02-21T13:09:31.500Z,32.23
2018-02-21T13:11:59.033Z,31.23
2018-02-21T13:14:26.606Z,32.60
2018-02-21T13:16:54.137Z,34.13
2018-02-21T13:19:22.467Z,34.57
2018-02-21T13:21:49.995Z,29.60
2018-02-21T13:24:17.555Z,35.40
2018-02-21T13:26:45.099Z,27.03
2018-02-21T13:29:13.457Z,33.50
2018-02-21T13:31:40.974Z,35.50
2018-02-21T13:34:08.529Z,29.70
2018-02-21T13:36:36.050Z,25.70
2018-02-21T13:39:04.372Z,27.80
2018-02-21T13:41:31.912Z,27.07
2018-02-21T13:43:59.475Z,29.00
2018-02-21T13:46:27.006Z,30.93
2018-02-21T13:48:55.333Z,32.47
2018-02-21T13:51:22.872Z,29.80
2018-02-21T13:53:50.464Z,32.10
2018-02-21T13:56:18.003Z,28.20
2018-02-21T13:58:45.566Z,26.60
2018-02-21T14:01:13.103Z,32.20
2018-02-21T14:03:40.663Z,29.60
2018-02-21T14:06:08.194Z,26.50
2018-02-21T14:08:35.754Z,32.03
2018-02-21T14:11:03.286Z,31.17
2018-02-21T14:13:30.838Z,34.93
2018-02-21T14:15:58.366Z,33.67
2018-02-21T14:18:25.918Z,31.33
2018-02-21T14:20:53.454Z,40.60
2018-02-21T14:23:20.986Z,34.27
2018-02-21T14:25:48.545Z,34.13
2018-02-21T14:28:16.075Z,29.60
2018-02-21T14:30:43.640Z,29.37
2018-02-21T14:33:11.178Z,35.07
2018-02-21T14:35:38.735Z,30.90
2018-02-21T14:38:06.271Z,32.40
2018-02-21T14:40:33.835Z,27.90
2018-02-21T14:43:02.138Z,32.67
2018-02-21T14:45:29.703Z,26.17
2018-02-21T14:47:57.243Z,32.20
2018-02-21T14:50:25.554Z,30.90
2018-02-21T14:52:53.099Z,25.90
2018-02-21T14:55:20.661Z,27.10
2018-02-21T14:57:48.198Z,28.10
2018-02-21T15:00:16.528Z,30.77
2018-02-21T15:02:44.058Z,28.50
2018-02-21T15:05:11.615Z,27.50
2018-02-21T15:07:39.157Z,23.13
2018-02-21T15:10:07.482Z,28.90
2018-02-21T15:12:35.025Z,22.50
2018-02-21T15:15:02.588Z,23.13
2018-02-21T15:17:30.122Z,22.93
2018-02-21T15:19:57.688Z,25.03
2018-02-21T15:22:25.222Z,25.20
2018-02-21T15:24:53.557Z,25.90
2018-02-21T15:27:21.090Z,23.97
2018-02-21T15:29:48.650Z,21.00
2018-02-21T15:32:16.196Z,23.53
2018-02-21T15:34:43.754Z,21.57
2018-02-21T15:37:12.058Z,20.87
2018-02-21T15:39:39.629Z,23.77
2018-02-21T15:42:07.162Z,23.80
2018-02-21T15:44:34.723Z,24.90
2018-02-21T15:47:02.258Z,24.70
2018-02-21T15:49:30.587Z,22.93
2018-02-21T15:51:58.114Z,23.60
2018-02-21T15:54:25.678Z,28.13
2018-02-21T15:56:53.218Z,26.87
2018-02-21T15:59:21.546Z,20.07
2018-02-21T16:01:49.080Z,23.10
2018-02-21T16:04:16.648Z,24.43
2018-02-21T16:06:44.180Z,24.27
2018-02-21T16:09:12.505Z,31.17
2018-02-21T16:11:40.807Z,33.67
2018-02-21T16:14:08.357Z,33.97
2018-02-21T16:16:35.892Z,33.50
2018-02-21T16:19:03.446Z,35.53
2018-02-21T16:21:31.004Z,35.87
2018-02-21T16:23:58.531Z,36.00
2018-02-21T16:26:26.859Z,36.50
2018-02-21T16:28:54.395Z,33.43
2018-02-21T16:31:21.962Z,40.43
2018-02-21T16:33:49.494Z,33.53
2018-02-21T16:36:17.080Z,33.87
2018-02-21T16:38:44.619Z,34.70
2018-02-21T16:41:12.185Z,42.33
2018-02-21T16:43:39.719Z,32.33
2018-02-21T16:46:08.038Z,33.57
2018-02-21T16:48:35.582Z,28.20
2018-02-21T16:51:03.138Z,37.77
2018-02-21T16:53:30.671Z,33.87
2018-02-21T16:55:58.994Z,30.70
2018-02-21T16:58:26.536Z,33.63
2018-02-21T17:00:54.095Z,32.40
2018-02-21T17:03:21.702Z,30.90
2018-02-21T17:05:49.254Z,32.73
2018-02-21T17:08:16.802Z,36.50
2018-02-21T17:10:44.372Z,38.53
2018-02-21T17:13:11.908Z,31.63
2018-02-21T17:15:39.472Z,25.90
2018-02-21T17:18:07.010Z,31.13
2018-02-21T17:20:34.566Z,30.37
2018-02-21T17:23:02.103Z,32.43
2018-02-21T17:25:29.665Z,31.97
2018-02-21T17:27:57.966Z,32.90
2018-02-21T17:30:25.536Z,32.67
2018-02-21T17:32:53.066Z,29.93
2018-02-21T17:35:21.396Z,33.00
2018-02-21T17:37:48.922Z,30.77
2018-02-21T17:40:16.485Z,33.80
2018-02-21T17:42:44.019Z,28.33
2018-02-21T17:45:12.347Z,31.20
2018-02-21T17:47:39.879Z,33.03
2018-02-21T17:50:07.440Z,31.60
2018-02-21T17:52:34.970Z,28.50
2018-02-21T17:55:02.727Z,30.47
2018-02-21T17:57:30.363Z,28.57
2018-02-21T17:59:57.913Z,30.70
2018-02-21T18:02:25.450Z,31.30
2018-02-21T18:04:53.007Z,34.87
2018-02-21T18:07:20.543Z,33.33
2018-02-21T18:09:48.878Z,31.17
2018-02-21T18:12:16.438Z,30.20
2018-02-21T18:14:44.005Z,26.70
2018-02-21T18:17:12.318Z,33.27
2018-02-21T18:19:40.647Z,26.03
2018-02-21T18:22:08.190Z,29.90
2018-02-21T18:24:35.727Z,30.23
2018-02-21T18:27:04.050Z,29.97
2018-02-21T18:29:31.583Z,32.93
2018-02-21T18:31:59.137Z,30.40
2018-02-21T18:34:26.687Z,31.47
2018-02-21T18:36:55.115Z,32.60
2018-02-21T18:39:22.646Z,31.87
2018-02-21T18:41:50.214Z,30.23
2018-02-21T18:44:17.742Z,30.13
2018-02-21T18:46:46.062Z,43.03
2018-02-21T18:49:13.590Z,30.33
2018-02-21T18:51:41.151Z,30.83
2018-02-21T18:54:08.690Z,36.07
2018-02-21T18:56:37.002Z,32.07
2018-02-21T18:59:04.529Z,28.60
2018-02-21T19:01:32.851Z,28.27
2018-02-21T19:04:01.162Z,31.33
2018-02-21T19:06:28.727Z,32.93
2018-02-21T19:08:56.255Z,30.87
2018-02-21T19:11:23.806Z,32.23
2018-02-21T19:13:51.342Z,31.87
2018-02-21T19:16:18.903Z,35.13
2018-02-21T19:18:46.434Z,28.40
2018-02-21T19:21:14.766Z,31.83
2018-02-21T19:23:42.294Z,29.23
2018-02-21T19:26:09.854Z,30.40
2018-02-21T19:28:37.385Z,28.53
2018-02-21T19:31:04.946Z,33.30
2018-02-21T19:33:32.480Z,26.50
2018-02-21T19:36:00.026Z,31.77
2018-02-21T19:38:27.578Z,28.90
2018-02-21T19:40:55.128Z,30.83
2018-02-21T19:43:22.654Z,38.87
2018-02-21T19:45:50.974Z,29.00
2018-02-21T19:48:18.508Z,30.73
2018-02-21T19:50:46.074Z,29.10
2018-02-21T19:53:13.618Z,33.63
2018-02-21T19:55:41.947Z,35.17
2018-02-21T19:58:09.488Z,36.07
2018-02-21T20:00:37.057Z,32.87
2018-02-21T20:03:04.582Z,34.00
2018-02-21T20:05:32.122Z,41.57
2018-02-21T20:08:00.469Z,31.57
2018-02-21T20:10:27.998Z,33.30
2018-02-21T20:12:55.563Z,35.43
2018-02-21T20:15:23.112Z,37.43
2018-02-21T20:17:50.671Z,42.60
2018-02-21T20:20:18.202Z,36.50
2018-02-21T20:22:46.528Z,40.03
2018-02-21T20:25:14.067Z,40.10
2018-02-21T20:27:41.638Z,38.57
2018-02-21T20:30:09.193Z,32.83
2018-02-21T20:32:36.776Z,38.25
2018-02-21T20:35:04.302Z,40.53
2018-02-21T20:37:31.863Z,37.67
2018-02-21T20:39:59.395Z,37.13
2018-02-21T20:42:27.722Z,43.70
2018-02-21T20:44:55.258Z,40.33
2018-02-21T20:47:22.815Z,34.90
2018-02-21T20:49:50.361Z,32.97
2018-02-21T20:52:18.702Z,35.33
2018-02-21T20:54:46.243Z,33.90
2018-02-21T20:57:13.771Z,39.33
2018-02-21T20:59:41.346Z,38.57
2018-02-21T21:02:08.944Z,35.63
2018-02-21T21:04:37.305Z,36.53
2018-02-21T21:07:04.839Z,42.93
2018-02-21T21:09:32.398Z,37.33
2018-02-21T21:11:59.937Z,38.73
2018-02-21T21:14:28.933Z,38.93
2018-02-21T21:16:56.660Z,40.60
2018-02-21T21:19:24.248Z,39.20
2018-02-21T21:21:52.551Z,38.27
2018-02-21T21:24:20.112Z,41.37
2018-02-21T21:26:47.747Z,41.30
2018-02-21T21:29:15.338Z,35.73
2018-02-21T21:31:42.878Z,38.50
2018-02-21T21:34:11.198Z,39.10
2018-02-21T21:36:38.740Z,37.30
2018-02-21T21:39:06.307Z,42.90
2018-02-21T21:41:33.871Z,37.67
2018-02-21T21:44:01.412Z,34.67
2018-02-21T21:46:28.991Z,37.80
2018-02-21T21:48:56.532Z,39.15
2018-02-21T21:51:24.189Z,36.72
2018-02-21T21:53:52.177Z,34.72
2018-02-21T21:56:19.941Z,39.80
2018-02-21T21:58:47.475Z,39.57
2018-02-21T22:01:15.044Z,36.63
2018-02-21T22:03:42.578Z,39.00
2018-02-21T22:06:10.920Z,37.45
2018-02-21T22:08:38.858Z,42.72
2018-02-21T22:11:06.449Z,35.20
2018-02-21T22:13:33.983Z,37.87
2018-02-21T22:16:01.543Z,34.67
2018-02-21T22:18:29.082Z,39.03
2018-02-21T22:20:56.622Z,32.90
2018-02-21T22:23:24.980Z,40.23
2018-02-21T22:25:52.556Z,40.30
2018-02-21T22:28:20.891Z,48.10
2018-02-21T22:30:48.430Z,42.25
2018-02-21T22:33:16.047Z,44.13
2018-02-21T22:35:43.615Z,43.78
2018-02-21T22:38:11.964Z,49.63
2018-02-21T22:40:39.508Z,41.92
2018-02-21T22:43:07.082Z,44.50
2018-02-21T22:45:34.631Z,36.83
2018-02-21T22:48:02.197Z,46.67
2018-02-21T22:50:29.739Z,45.75
2018-02-21T22:52:57.316Z,49.10
2018-02-21T22:55:24.882Z,42.77
2018-02-21T22:57:53.239Z,50.97
2018-02-21T23:00:20.846Z,46.90
2018-02-21T23:02:48.372Z,50.30
2018-02-21T23:05:16.686Z,49.60
2018-02-21T23:07:44.227Z,51.08
2018-02-21T23:10:11.800Z,46.13
2018-02-21T23:12:39.347Z,45.70
2018-02-21T23:15:06.919Z,49.03
2018-02-21T23:17:34.462Z,49.45
2018-02-21T23:20:02.038Z,51.30
2018-02-21T23:22:29.579Z,50.95
2018-02-21T23:24:57.146Z,54.40
2018-02-21T23:27:24.693Z,50.38
2018-02-21T23:29:52.256Z,55.65
2018-02-21T23:32:19.798Z,55.33
2018-02-21T23:34:48.146Z,54.20
2018-02-21T23:37:15.704Z,61.92
2018-02-21T23:39:43.282Z,51.78
2018-02-21T23:42:10.823Z,64.10
2018-02-21T23:44:38.402Z,54.38
2018-02-21T23:47:05.944Z,56.83
2018-02-21T23:49:33.550Z,53.70
2018-02-21T23:52:01.097Z,60.50
2018-02-21T23:54:28.676Z,61.53
2018-02-21T23:56:56.214Z,56.37
2018-02-21T23:59:23.759Z,58.55
